createdAt,value
2023-05-07T00:00:26.859Z,9.59
2023-05-07T00:02:54.032Z,9.52
2023-05-07T00:05:21.176Z,9.55
2023-05-07T00:07:48.368Z,9.62
2023-05-07T00:10:15.037Z,9.67
2023-05-07T00:12:41.992Z,9.71
2023-05-07T00:15:09.633Z,9.71
2023-05-07T00:17:36.914Z,9.75
2023-05-07T00:20:04.991Z,9.72
2023-05-07T00:22:33.295Z,9.71
2023-05-07T00:25:00.164Z,9.67
2023-05-07T00:27:27.137Z,9.73
2023-05-07T00:29:53.761Z,9.72
2023-05-07T00:32:20.693Z,9.68
2023-05-07T00:34:47.314Z,9.58
2023-05-07T00:37:14.088Z,9.56
2023-05-07T00:39:40.825Z,9.61
2023-05-07T00:42:07.690Z,9.67
2023-05-07T00:44:34.280Z,9.67
2023-05-07T00:47:03.376Z,9.59
2023-05-07T00:49:58.085Z,9.54
2023-05-07T00:52:27.146Z,9.41
2023-05-07T00:54:56.282Z,9.29
2023-05-07T00:57:29.622Z,9.07
2023-05-07T01:02:27.868Z,9.36
2023-05-07T01:04:56.677Z,9.10
2023-05-07T01:07:24.590Z,9.32
2023-05-07T01:09:51.282Z,9.33
2023-05-07T01:12:18.263Z,9.33
2023-05-07T01:14:45.083Z,9.31
2023-05-07T01:17:11.789Z,9.33
2023-05-07T01:19:38.523Z,9.27
2023-05-07T01:22:09.520Z,9.21
2023-05-07T01:24:37.950Z,9.09
2023-05-07T01:27:05.479Z,9.12
2023-05-07T01:29:32.132Z,9.08
2023-05-07T01:32:00.955Z,8.97
2023-05-07T01:34:31.445Z,9.03
2023-05-07T01:37:00.587Z,8.96
2023-05-07T01:39:29.623Z,8.93
2023-05-07T01:41:57.255Z,8.79
2023-05-07T01:44:24.747Z,8.83
2023-05-07T01:46:51.608Z,8.75
2023-05-07T01:49:19.193Z,8.73
2023-05-07T01:51:46.134Z,8.68
2023-05-07T01:54:12.751Z,8.71
2023-05-07T01:56:39.508Z,8.67
2023-05-07T01:59:06.256Z,8.66
2023-05-07T02:01:32.893Z,8.58
2023-05-07T02:03:59.876Z,8.61
2023-05-07T02:06:26.589Z,8.35
2023-05-07T02:08:53.240Z,8.30
2023-05-07T02:11:19.905Z,8.26
2023-05-07T02:13:46.620Z,8.22
2023-05-07T02:16:15.545Z,8.06
2023-05-07T02:18:42.628Z,8.06
2023-05-07T02:21:09.235Z,7.91
2023-05-07T02:23:35.862Z,7.78
2023-05-07T02:26:02.600Z,7.75
2023-05-07T02:28:29.212Z,7.59
2023-05-07T02:33:21.339Z,7.34
2023-05-07T02:35:47.961Z,7.23
2023-05-07T02:38:14.530Z,7.13
2023-05-07T02:40:41.333Z,7.14
2023-05-07T02:43:08.189Z,7.16
2023-05-07T02:45:34.934Z,7.05
2023-05-07T02:48:01.767Z,7.01
2023-05-07T02:50:28.700Z,7.01
2023-05-07T02:52:55.704Z,6.96
2023-05-07T02:55:22.555Z,6.87
2023-05-07T02:57:49.308Z,6.96
2023-05-07T03:00:18.839Z,6.91
2023-05-07T03:02:46.353Z,6.92
2023-05-07T03:05:13.666Z,6.90
2023-05-07T03:07:40.357Z,6.83
2023-05-07T03:10:07.375Z,6.83
2023-05-07T03:12:34.206Z,6.81
2023-05-07T03:15:00.858Z,6.75
2023-05-07T03:17:27.560Z,6.75
2023-05-07T03:19:54.165Z,6.65
2023-05-07T03:22:21.586Z,6.75
2023-05-07T03:24:48.164Z,6.88
2023-05-07T03:27:14.860Z,6.80
2023-05-07T03:29:41.479Z,6.87
2023-05-07T03:32:08.194Z,6.87
2023-05-07T03:34:34.866Z,7.04
2023-05-07T03:37:01.967Z,7.14
2023-05-07T03:39:28.669Z,6.96
2023-05-07T03:41:55.506Z,6.90
2023-05-07T03:44:22.103Z,6.84
2023-05-07T03:46:48.742Z,7.29
2023-05-07T03:49:15.347Z,7.36
2023-05-07T03:51:42.276Z,7.36
2023-05-07T03:54:09.018Z,7.47
2023-05-07T03:56:35.730Z,7.56
2023-05-07T03:59:02.709Z,7.66
2023-05-07T04:01:29.483Z,7.80
2023-05-07T04:03:56.743Z,7.77
2023-05-07T04:06:23.712Z,7.91
2023-05-07T04:08:50.297Z,8.10
2023-05-07T04:11:17.085Z,8.15
2023-05-07T04:13:43.826Z,8.30
2023-05-07T04:16:10.431Z,8.43
2023-05-07T04:18:37.092Z,8.56
2023-05-07T04:21:03.945Z,8.62
2023-05-07T04:23:30.925Z,8.63
2023-05-07T04:25:58.391Z,8.69
2023-05-07T04:28:25.413Z,8.79
2023-05-07T04:30:52.528Z,9.00
2023-05-07T04:33:19.395Z,9.02
2023-05-07T04:35:46.030Z,9.21
2023-05-07T04:38:12.812Z,9.84
2023-05-07T04:40:42.633Z,10.67
2023-05-07T04:43:10.191Z,12.18
2023-05-07T04:45:41.145Z,13.15
2023-05-07T04:48:08.463Z,13.83
2023-05-07T04:50:35.094Z,14.50
2023-05-07T04:53:02.198Z,14.54
2023-05-07T04:55:28.789Z,14.71
2023-05-07T04:57:55.546Z,15.51
2023-05-07T05:00:22.382Z,15.99
2023-05-07T05:02:49.110Z,16.14
2023-05-07T05:05:16.460Z,16.53
2023-05-07T05:07:43.058Z,16.33
2023-05-07T05:10:14.342Z,16.74
2023-05-07T05:12:41.311Z,16.70
2023-05-07T05:15:08.892Z,16.70
2023-05-07T05:17:36.885Z,16.70
2023-05-07T05:20:03.950Z,16.40
2023-05-07T05:22:32.089Z,16.46
2023-05-07T05:24:58.720Z,16.87
2023-05-07T05:27:25.366Z,16.59
2023-05-07T05:29:51.968Z,16.72
2023-05-07T05:32:18.754Z,16.57
2023-05-07T05:34:45.601Z,16.74
2023-05-07T05:37:12.396Z,16.64
2023-05-07T05:39:38.992Z,16.61
2023-05-07T05:42:06.919Z,16.57
2023-05-07T05:44:33.596Z,16.22
2023-05-07T05:47:00.431Z,16.16
2023-05-07T05:49:27.301Z,15.99
2023-05-07T05:51:53.999Z,16.25
2023-05-07T05:54:20.793Z,16.17
2023-05-07T05:56:47.513Z,16.51
2023-05-07T05:59:14.270Z,16.64
2023-05-07T06:01:41.042Z,16.73
2023-05-07T06:04:07.804Z,16.84
2023-05-07T06:06:34.422Z,16.89
2023-05-07T06:09:01.040Z,16.91
2023-05-07T06:11:27.772Z,16.79
2023-05-07T06:13:54.380Z,17.21
2023-05-07T06:16:21.097Z,17.38
2023-05-07T06:18:47.923Z,17.41
2023-05-07T06:21:15.581Z,17.65
2023-05-07T06:23:42.383Z,17.69
2023-05-07T06:26:09.131Z,17.56
2023-05-07T06:28:37.004Z,17.62
2023-05-07T06:31:14.411Z,17.58
2023-05-07T06:33:41.902Z,17.65
2023-05-07T06:36:08.827Z,17.72
2023-05-07T06:38:35.463Z,17.09
2023-05-07T06:41:02.235Z,17.04
2023-05-07T06:43:28.851Z,16.90
2023-05-07T06:46:02.793Z,16.82
2023-05-07T06:48:29.885Z,16.42
2023-05-07T06:50:58.966Z,16.44
2023-05-07T06:53:26.887Z,16.98
2023-05-07T06:55:53.725Z,16.44
2023-05-07T06:58:20.499Z,16.55
2023-05-07T07:00:47.678Z,17.06
2023-05-07T07:03:15.080Z,16.60
2023-05-07T07:05:44.096Z,17.01
2023-05-07T07:08:11.281Z,17.26
2023-05-07T07:10:39.881Z,17.69
2023-05-07T07:13:06.915Z,17.81
2023-05-07T07:15:34.159Z,18.04
2023-05-07T07:18:01.503Z,18.24
2023-05-07T07:20:38.319Z,18.04
2023-05-07T07:23:06.322Z,17.52
2023-05-07T07:25:33.542Z,18.24
2023-05-07T07:28:00.345Z,18.52
2023-05-07T07:30:28.685Z,18.23
2023-05-07T07:32:56.378Z,18.63
2023-05-07T07:35:23.372Z,18.79
2023-05-07T07:37:51.633Z,18.43
2023-05-07T07:40:23.679Z,18.58
2023-05-07T07:42:50.609Z,19.14
2023-05-07T07:45:17.665Z,18.81
2023-05-07T07:47:44.621Z,19.05
2023-05-07T07:50:14.819Z,19.16
2023-05-07T07:52:47.210Z,19.12
2023-05-07T07:55:14.123Z,19.17
2023-05-07T07:57:41.309Z,19.87
2023-05-07T08:00:09.153Z,19.50
2023-05-07T08:02:38.734Z,19.30
2023-05-07T08:05:05.910Z,19.53
2023-05-07T08:07:33.067Z,19.68
2023-05-07T08:09:59.995Z,19.76
2023-05-07T08:12:26.861Z,19.45
2023-05-07T08:14:53.737Z,19.68
2023-05-07T08:17:23.422Z,19.76
2023-05-07T08:19:50.479Z,20.21
2023-05-07T08:22:19.333Z,20.13
2023-05-07T08:24:46.275Z,20.41
2023-05-07T08:27:13.203Z,20.42
2023-05-07T08:29:42.055Z,20.55
2023-05-07T08:32:09.397Z,20.33
2023-05-07T08:34:36.456Z,20.34
2023-05-07T08:37:06.269Z,20.49
2023-05-07T08:39:33.057Z,20.56
2023-05-07T08:42:03.569Z,20.35
2023-05-07T08:44:36.572Z,20.15
2023-05-07T08:47:03.816Z,19.85
2023-05-07T08:49:30.933Z,19.29
2023-05-07T08:51:57.784Z,19.43
2023-05-07T08:54:26.330Z,19.94
2023-05-07T08:56:55.531Z,20.14
2023-05-07T08:59:22.507Z,20.21
2023-05-07T09:01:49.786Z,20.08
2023-05-07T09:04:17.047Z,20.57
2023-05-07T09:06:48.179Z,20.74
2023-05-07T09:09:25.623Z,21.02
2023-05-07T09:12:03.712Z,20.64
2023-05-07T09:14:31.731Z,20.47
2023-05-07T09:17:06.367Z,20.94
2023-05-07T09:19:33.170Z,20.77
2023-05-07T09:22:05.341Z,20.98
2023-05-07T09:24:36.171Z,21.51
2023-05-07T09:27:03.973Z,21.38
2023-05-07T09:29:31.404Z,21.29
2023-05-07T09:32:01.070Z,21.14
2023-05-07T09:34:28.317Z,20.83
2023-05-07T09:37:00.730Z,21.17
2023-05-07T09:39:27.599Z,21.46
2023-05-07T09:41:56.042Z,21.25
2023-05-07T09:44:23.332Z,21.87
2023-05-07T09:47:01.973Z,22.20
2023-05-07T09:49:31.853Z,21.91
2023-05-07T09:52:01.108Z,22.10
2023-05-07T09:54:31.974Z,21.94
2023-05-07T09:56:59.850Z,21.74
2023-05-07T09:59:30.155Z,22.04
2023-05-07T10:02:00.103Z,21.81
2023-05-07T10:04:28.489Z,22.34
2023-05-07T10:06:56.870Z,22.55
2023-05-07T10:09:24.310Z,22.61
2023-05-07T10:11:52.271Z,22.35
2023-05-07T10:14:24.219Z,22.51
2023-05-07T10:16:51.142Z,22.60
2023-05-07T10:19:19.036Z,22.21
2023-05-07T10:21:55.266Z,22.37
2023-05-07T10:24:35.203Z,22.90
2023-05-07T10:27:04.192Z,22.55
2023-05-07T10:29:46.750Z,22.82
2023-05-07T10:32:36.648Z,23.03
2023-05-07T10:35:07.683Z,22.43
2023-05-07T10:37:35.508Z,22.88
2023-05-07T10:40:03.073Z,22.72
2023-05-07T10:42:29.959Z,22.98
2023-05-07T10:44:58.681Z,23.45
2023-05-07T10:47:25.583Z,23.67
2023-05-07T10:49:53.677Z,23.58
2023-05-07T10:52:27.280Z,23.34
2023-05-07T10:55:16.456Z,23.04
2023-05-07T10:57:43.430Z,22.89
2023-05-07T11:00:39.128Z,22.80
2023-05-07T11:03:08.428Z,22.43
2023-05-07T11:05:38.301Z,22.84
2023-05-07T11:08:06.582Z,22.96
2023-05-07T11:10:53.818Z,22.71
2023-05-07T11:13:50.605Z,22.73
2023-05-07T11:16:24.901Z,22.81
2023-05-07T11:18:58.172Z,23.29
2023-05-07T11:21:35.318Z,23.20
2023-05-07T11:24:03.273Z,23.35
2023-05-07T11:26:33.515Z,23.45
2023-05-07T11:29:01.648Z,23.49
2023-05-07T11:31:30.746Z,23.26
2023-05-07T11:33:59.031Z,23.37
2023-05-07T11:36:27.244Z,23.54
2023-05-07T11:38:54.491Z,23.52
2023-05-07T11:41:21.965Z,23.41
2023-05-07T11:43:58.883Z,23.74
2023-05-07T11:46:26.272Z,23.66
2023-05-07T11:48:53.464Z,23.26
2023-05-07T11:51:22.207Z,23.65
2023-05-07T11:53:50.048Z,23.49
2023-05-07T11:56:19.179Z,23.45
2023-05-07T11:58:47.693Z,23.69
2023-05-07T12:01:16.258Z,23.82
2023-05-07T12:03:49.026Z,23.20
2023-05-07T12:06:21.122Z,23.52
2023-05-07T12:08:48.707Z,23.94
2023-05-07T12:11:24.753Z,24.32
2023-05-07T12:13:54.612Z,24.11
2023-05-07T12:16:22.933Z,24.13
2023-05-07T12:18:54.134Z,24.03
2023-05-07T12:21:21.306Z,24.36
2023-05-07T12:23:49.067Z,24.07
2023-05-07T12:26:16.556Z,23.78
2023-05-07T12:28:45.607Z,24.29
2023-05-07T12:31:12.823Z,24.13
2023-05-07T12:33:41.490Z,24.35
2023-05-07T12:36:09.582Z,24.55
2023-05-07T12:38:38.315Z,24.43
2023-05-07T12:41:06.093Z,24.42
2023-05-07T12:43:33.262Z,24.58
2023-05-07T12:46:07.050Z,25.23
2023-05-07T12:48:34.308Z,25.25
2023-05-07T12:51:03.178Z,25.19
2023-05-07T12:53:31.523Z,25.26
2023-05-07T12:56:02.847Z,24.81
2023-05-07T12:58:32.863Z,24.93
2023-05-07T13:01:02.889Z,24.64
2023-05-07T13:03:38.472Z,24.73
2023-05-07T13:06:07.790Z,25.30
2023-05-07T13:08:41.589Z,25.26
2023-05-07T13:11:09.538Z,25.14
2023-05-07T13:13:37.841Z,24.78
2023-05-07T13:16:06.379Z,25.08
2023-05-07T13:18:35.268Z,25.27
2023-05-07T13:21:02.814Z,25.19
2023-05-07T13:23:30.262Z,25.34
2023-05-07T13:26:00.117Z,25.28
2023-05-07T13:28:28.662Z,25.12
2023-05-07T13:30:55.934Z,25.13
2023-05-07T13:33:23.373Z,25.04
2023-05-07T13:35:50.212Z,24.76
2023-05-07T13:38:17.405Z,25.12
2023-05-07T13:40:44.251Z,24.91
2023-05-07T13:43:11.798Z,25.15
2023-05-07T13:45:38.710Z,24.98
2023-05-07T13:48:05.983Z,25.11
2023-05-07T13:50:32.750Z,25.03
2023-05-07T13:52:59.941Z,24.88
2023-05-07T13:55:27.223Z,24.77
2023-05-07T13:58:01.075Z,25.38
2023-05-07T14:00:29.113Z,25.37
2023-05-07T14:02:57.285Z,25.51
2023-05-07T14:05:24.688Z,24.55
2023-05-07T14:07:52.990Z,24.74
2023-05-07T14:10:20.724Z,25.00
2023-05-07T14:12:48.213Z,24.86
2023-05-07T14:15:15.784Z,25.18
2023-05-07T14:17:42.924Z,25.47
2023-05-07T14:20:11.894Z,25.87
2023-05-07T14:22:38.776Z,25.96
2023-05-07T14:25:07.085Z,25.35
2023-05-07T14:27:34.219Z,25.15
2023-05-07T14:30:01.106Z,25.22
2023-05-07T14:32:27.974Z,24.89
2023-05-07T14:34:54.828Z,24.66
2023-05-07T14:37:21.739Z,24.52
2023-05-07T14:39:51.070Z,24.82
2023-05-07T14:42:19.065Z,24.97
2023-05-07T14:44:46.707Z,24.76
2023-05-07T14:47:14.046Z,24.73
2023-05-07T14:49:42.119Z,24.78
2023-05-07T14:52:11.449Z,24.84
2023-05-07T14:54:39.608Z,24.29
2023-05-07T14:57:08.119Z,24.47
2023-05-07T14:59:35.214Z,24.41
2023-05-07T15:02:05.280Z,24.39
2023-05-07T15:07:00.970Z,24.42
2023-05-07T15:09:27.887Z,24.53
2023-05-07T15:11:58.405Z,24.42
2023-05-07T15:14:25.232Z,24.95
2023-05-07T15:16:51.888Z,24.24
2023-05-07T15:19:18.592Z,24.46
2023-05-07T15:21:45.376Z,24.67
2023-05-07T15:24:12.142Z,24.71
2023-05-07T15:26:38.778Z,25.10
2023-05-07T15:29:11.341Z,24.92
2023-05-07T15:31:41.544Z,24.68
2023-05-07T15:34:09.334Z,24.71
2023-05-07T15:36:50.604Z,24.27
2023-05-07T15:39:34.563Z,24.45
2023-05-07T15:42:02.334Z,24.31
2023-05-07T15:44:32.081Z,23.96
2023-05-07T15:47:00.643Z,23.94
2023-05-07T15:49:27.412Z,24.27
2023-05-07T15:51:55.639Z,24.32
2023-05-07T15:54:24.062Z,24.50
2023-05-07T15:56:51.181Z,24.56
2023-05-07T15:59:18.019Z,23.95
2023-05-07T16:01:45.725Z,24.36
2023-05-07T16:04:12.706Z,24.21
2023-05-07T16:06:39.713Z,24.20
2023-05-07T16:09:06.477Z,24.25
2023-05-07T16:11:34.287Z,23.83
2023-05-07T16:14:01.595Z,23.90
2023-05-07T16:16:30.174Z,23.73
2023-05-07T16:18:57.278Z,23.92
2023-05-07T16:21:24.829Z,23.77
2023-05-07T16:23:52.035Z,23.37
2023-05-07T16:26:19.090Z,22.80
2023-05-07T16:28:45.823Z,22.66
2023-05-07T16:31:12.646Z,22.34
2023-05-07T16:33:39.355Z,22.13
2023-05-07T16:36:07.000Z,21.76
2023-05-07T16:38:34.811Z,21.67
2023-05-07T16:41:05.989Z,21.39
2023-05-07T16:43:33.234Z,21.36
2023-05-07T16:46:00.533Z,21.28
2023-05-07T16:48:27.293Z,21.27
2023-05-07T16:50:53.954Z,21.06
2023-05-07T16:53:20.953Z,20.95
2023-05-07T16:55:47.826Z,20.97
2023-05-07T16:58:15.443Z,20.80
2023-05-07T17:00:50.733Z,20.65
2023-05-07T17:03:22.369Z,20.18
2023-05-07T17:05:49.427Z,20.58
2023-05-07T17:08:17.269Z,20.27
2023-05-07T17:10:45.880Z,19.98
2023-05-07T17:13:13.268Z,20.02
2023-05-07T17:15:41.402Z,20.08
2023-05-07T17:18:08.121Z,19.55
2023-05-07T17:20:44.733Z,19.87
2023-05-07T17:23:11.588Z,19.63
2023-05-07T17:25:38.577Z,19.23
2023-05-07T17:28:20.891Z,19.65
2023-05-07T17:30:48.823Z,19.08
2023-05-07T17:33:21.419Z,19.47
2023-05-07T17:35:49.474Z,19.20
2023-05-07T17:38:16.152Z,19.08
2023-05-07T17:40:42.909Z,19.03
2023-05-07T17:43:09.669Z,18.97
2023-05-07T17:45:36.476Z,18.82
2023-05-07T17:48:03.690Z,18.67
2023-05-07T17:50:30.489Z,18.53
2023-05-07T17:52:57.197Z,18.35
2023-05-07T17:55:23.992Z,18.30
2023-05-07T17:57:50.839Z,18.32
2023-05-07T18:00:17.732Z,18.44
2023-05-07T18:02:44.617Z,18.32
2023-05-07T18:05:11.524Z,18.28
2023-05-07T18:07:38.428Z,18.41
2023-05-07T18:10:05.941Z,18.33
2023-05-07T18:12:32.721Z,18.34
2023-05-07T18:14:59.582Z,18.37
2023-05-07T18:17:26.894Z,18.39
2023-05-07T18:19:55.177Z,18.24
2023-05-07T18:22:22.754Z,18.12
2023-05-07T18:24:51.119Z,18.11
2023-05-07T18:27:19.348Z,18.09
2023-05-07T18:29:46.784Z,18.02
2023-05-07T18:32:13.943Z,17.92
2023-05-07T18:34:41.554Z,17.92
2023-05-07T18:37:08.444Z,17.92
2023-05-07T18:39:39.211Z,17.88
2023-05-07T18:42:06.895Z,17.55
2023-05-07T18:44:37.519Z,17.74
2023-05-07T18:47:06.009Z,17.62
2023-05-07T18:49:36.583Z,17.62
2023-05-07T18:52:03.728Z,17.50
2023-05-07T18:54:30.756Z,17.40
2023-05-07T18:56:58.406Z,17.36
2023-05-07T18:59:25.458Z,17.01
2023-05-07T19:01:52.172Z,17.25
2023-05-07T19:04:22.269Z,17.00
2023-05-07T19:06:49.133Z,17.02
2023-05-07T19:09:15.806Z,16.94
2023-05-07T19:11:42.902Z,16.91
2023-05-07T19:14:11.185Z,16.87
2023-05-07T19:16:38.280Z,16.71
2023-05-07T19:19:05.693Z,16.71
2023-05-07T19:21:32.600Z,16.78
2023-05-07T19:23:59.385Z,16.78
2023-05-07T19:26:26.258Z,16.26
2023-05-07T19:31:23.991Z,16.55
2023-05-07T19:33:50.917Z,16.64
2023-05-07T19:36:17.897Z,16.52
2023-05-07T19:38:49.991Z,16.42
2023-05-07T19:41:20.664Z,16.37
2023-05-07T19:43:48.014Z,16.37
2023-05-07T19:46:17.084Z,16.22
2023-05-07T19:48:49.317Z,15.82
2023-05-07T19:51:16.418Z,16.00
2023-05-07T19:53:44.991Z,15.85
2023-05-07T19:56:13.065Z,16.10
2023-05-07T19:58:39.944Z,15.99
2023-05-07T20:01:06.835Z,15.92
2023-05-07T20:03:37.769Z,15.99
2023-05-07T20:06:04.861Z,15.93
2023-05-07T20:08:31.942Z,15.84
2023-05-07T20:11:00.073Z,15.64
2023-05-07T20:13:27.599Z,15.69
2023-05-07T20:16:01.412Z,15.67
2023-05-07T20:18:29.361Z,15.43
2023-05-07T20:20:56.505Z,15.59
2023-05-07T20:23:30.691Z,15.34
2023-05-07T20:25:58.348Z,15.50
2023-05-07T20:28:25.710Z,15.51
2023-05-07T20:31:00.525Z,15.45
2023-05-07T20:33:43.487Z,14.55
2023-05-07T20:36:16.823Z,15.48
2023-05-07T20:38:53.488Z,15.42
2023-05-07T20:41:21.910Z,15.31
2023-05-07T20:43:48.680Z,15.20
2023-05-07T20:46:15.406Z,15.28
2023-05-07T20:48:42.355Z,15.27
2023-05-07T20:51:15.838Z,15.14
2023-05-07T20:53:45.473Z,15.11
2023-05-07T20:56:14.517Z,14.98
2023-05-07T20:58:41.387Z,14.75
2023-05-07T21:01:08.627Z,14.96
2023-05-07T21:03:35.388Z,14.60
2023-05-07T21:06:03.250Z,14.37
2023-05-07T21:08:30.491Z,14.64
2023-05-07T21:10:57.453Z,14.50
2023-05-07T21:13:24.269Z,14.79
2023-05-07T21:15:51.380Z,14.64
2023-05-07T21:18:19.070Z,14.36
2023-05-07T21:20:45.980Z,14.49
2023-05-07T21:23:12.816Z,14.53
2023-05-07T21:25:41.462Z,14.55
2023-05-07T21:28:09.392Z,14.57
2023-05-07T21:30:37.338Z,14.54
2023-05-07T21:33:06.278Z,14.52
2023-05-07T21:35:36.108Z,13.67
2023-05-07T21:38:03.378Z,14.27
2023-05-07T21:40:30.376Z,14.29
2023-05-07T21:42:57.983Z,14.26
2023-05-07T21:45:24.604Z,14.28
2023-05-07T21:47:51.489Z,14.26
2023-05-07T21:50:18.455Z,14.24
2023-05-07T21:52:45.161Z,14.20
2023-05-07T21:55:12.374Z,14.02
2023-05-07T21:57:43.515Z,13.89
2023-05-07T22:00:13.030Z,13.86
2023-05-07T22:02:40.232Z,13.74
2023-05-07T22:05:07.297Z,13.98
2023-05-07T22:07:34.226Z,13.80
2023-05-07T22:10:01.575Z,13.48
2023-05-07T22:12:30.039Z,13.40
2023-05-07T22:14:57.218Z,13.69
2023-05-07T22:17:24.717Z,13.65
2023-05-07T22:19:51.956Z,13.73
2023-05-07T22:22:19.360Z,13.80
2023-05-07T22:24:46.468Z,13.88
2023-05-07T22:27:13.460Z,13.84
2023-05-07T22:29:40.137Z,13.95
2023-05-07T22:32:06.957Z,13.91
2023-05-07T22:34:33.721Z,13.82
2023-05-07T22:37:00.697Z,13.76
2023-05-07T22:39:27.423Z,13.84
2023-05-07T22:41:54.060Z,13.82
2023-05-07T22:44:20.706Z,13.71
2023-05-07T22:46:47.522Z,13.87
2023-05-07T22:49:14.902Z,13.97
2023-05-07T22:51:41.709Z,14.00
2023-05-07T22:54:09.067Z,13.59
2023-05-07T22:56:35.735Z,13.83
2023-05-07T22:59:03.196Z,13.79
2023-05-07T23:01:29.968Z,13.30
2023-05-07T23:03:56.770Z,13.63
2023-05-07T23:06:23.607Z,13.64
2023-05-07T23:08:50.548Z,13.48
2023-05-07T23:11:17.693Z,13.62
2023-05-07T23:13:44.799Z,13.64
2023-05-07T23:16:11.729Z,13.52
2023-05-07T23:18:38.566Z,13.31
2023-05-07T23:21:06.655Z,13.44
2023-05-07T23:23:35.211Z,13.46
2023-05-07T23:26:01.975Z,13.32
2023-05-07T23:28:29.025Z,13.44
2023-05-07T23:30:56.506Z,13.21
2023-05-07T23:33:23.406Z,13.32
2023-05-07T23:35:50.352Z,13.27
2023-05-07T23:38:17.079Z,12.87
2023-05-07T23:40:44.376Z,12.96
2023-05-07T23:43:11.136Z,12.69
2023-05-07T23:45:41.908Z,12.73
2023-05-07T23:48:08.718Z,12.64
2023-05-07T23:50:37.969Z,12.18
2023-05-07T23:53:05.147Z,12.03
2023-05-07T23:55:32.260Z,12.41
2023-05-07T23:57:59.005Z,12.23
